createdAt,value
2017-11-08T00:00:46.889Z,44.17
2017-11-08T00:03:15.002Z,42.70
2017-11-08T00:05:43.142Z,40.23
2017-11-08T00:08:14.174Z,37.60
2017-11-08T00:10:42.315Z,43.90
2017-11-08T00:13:10.432Z,49.73
2017-11-08T00:15:38.630Z,43.00
2017-11-08T00:18:06.746Z,44.63
2017-11-08T00:20:35.653Z,47.37
2017-11-08T00:23:04.542Z,45.00
2017-11-08T00:25:33.447Z,48.10
2017-11-08T00:28:01.562Z,40.60
2017-11-08T00:30:29.726Z,44.43
2017-11-08T00:32:57.854Z,41.83
2017-11-08T00:35:26.786Z,43.20
2017-11-08T00:37:54.906Z,43.20
2017-11-08T00:40:23.819Z,43.37
2017-11-08T00:42:51.919Z,42.73
2017-11-08T00:45:20.066Z,43.03
2017-11-08T00:47:48.184Z,45.47
2017-11-08T00:50:16.340Z,43.10
2017-11-08T00:52:44.466Z,47.63
2017-11-08T00:55:13.362Z,49.40
2017-11-08T00:57:48.054Z,47.47
2017-11-08T01:00:16.185Z,44.37
2017-11-08T01:02:44.327Z,43.97
2017-11-08T01:05:13.196Z,44.07
2017-11-08T01:07:41.349Z,46.73
2017-11-08T01:10:09.467Z,48.03
2017-11-08T01:12:38.366Z,51.60
2017-11-08T01:15:07.254Z,48.30
2017-11-08T01:17:36.153Z,49.00
2017-11-08T01:20:04.263Z,45.97
2017-11-08T01:22:32.397Z,47.40
2017-11-08T01:25:00.514Z,52.97
2017-11-08T01:27:28.652Z,50.50
2017-11-08T01:29:56.769Z,54.50
2017-11-08T01:32:24.901Z,51.67
2017-11-08T01:34:53.021Z,46.10
2017-11-08T01:37:41.964Z,46.53
2017-11-08T01:40:10.089Z,47.60
2017-11-08T01:42:38.993Z,50.93
2017-11-08T01:45:07.930Z,53.13
2017-11-08T01:47:36.066Z,50.60
2017-11-08T01:50:04.180Z,45.40
2017-11-08T01:52:32.321Z,52.33
2017-11-08T01:55:00.442Z,46.33
2017-11-08T01:57:28.604Z,46.77
2017-11-08T01:59:56.728Z,47.93
2017-11-08T02:02:24.877Z,47.87
2017-11-08T02:04:53.759Z,46.10
2017-11-08T02:07:21.897Z,51.30
2017-11-08T02:09:50.005Z,51.80
2017-11-08T02:12:18.927Z,50.13
2017-11-08T02:14:47.050Z,54.07
2017-11-08T02:17:15.190Z,57.30
2017-11-08T02:19:44.088Z,55.80
2017-11-08T02:22:12.204Z,56.77
2017-11-08T02:24:40.350Z,56.60
2017-11-08T02:27:08.474Z,51.83
2017-11-08T02:29:36.610Z,50.23
2017-11-08T02:32:04.717Z,49.50
2017-11-08T02:34:32.840Z,54.37
2017-11-08T02:37:00.951Z,52.67
2017-11-08T02:39:30.222Z,51.57
2017-11-08T02:41:58.342Z,51.27
2017-11-08T02:44:26.498Z,62.40
2017-11-08T02:46:58.399Z,51.93
2017-11-08T02:49:26.541Z,59.20
2017-11-08T02:51:55.446Z,61.40
2017-11-08T02:54:23.589Z,59.40
2017-11-08T02:56:52.475Z,56.97
2017-11-08T02:59:20.617Z,59.43
2017-11-08T03:01:48.742Z,60.50
2017-11-08T03:04:16.886Z,63.47
2017-11-08T03:06:45.006Z,63.03
2017-11-08T03:09:13.156Z,61.93
2017-11-08T03:11:42.045Z,62.83
2017-11-08T03:14:10.958Z,67.77
2017-11-08T03:16:39.085Z,64.10
2017-11-08T03:19:07.249Z,56.93
2017-11-08T03:21:35.368Z,59.90
2017-11-08T03:24:03.475Z,64.23
2017-11-08T03:26:31.627Z,56.57
2017-11-08T03:28:59.736Z,62.73
2017-11-08T03:31:27.869Z,61.87
2017-11-08T03:33:55.984Z,65.53
2017-11-08T03:36:24.125Z,57.70
2017-11-08T03:38:52.259Z,59.17
2017-11-08T03:41:21.159Z,69.77
2017-11-08T03:43:50.023Z,59.20
2017-11-08T03:46:18.190Z,61.90
2017-11-08T03:48:46.304Z,61.70
2017-11-08T03:51:14.435Z,55.07
2017-11-08T03:53:42.565Z,64.17
2017-11-08T03:56:10.697Z,59.10
2017-11-08T03:58:38.829Z,60.40
2017-11-08T04:01:06.985Z,62.63
2017-11-08T04:03:35.093Z,67.73
2017-11-08T04:06:03.246Z,62.80
2017-11-08T04:08:31.361Z,68.03
2017-11-08T04:10:59.516Z,72.40
2017-11-08T04:13:27.638Z,68.07
2017-11-08T04:15:55.776Z,68.90
2017-11-08T04:18:23.900Z,75.03
2017-11-08T04:20:52.043Z,82.90
2017-11-08T04:23:20.927Z,69.53
2017-11-08T04:25:49.850Z,73.13
2017-11-08T04:28:17.956Z,82.57
2017-11-08T04:30:46.074Z,75.23
2017-11-08T04:33:14.982Z,70.07
2017-11-08T04:35:43.089Z,71.70
2017-11-08T04:38:11.230Z,72.63
2017-11-08T04:40:39.354Z,64.57
2017-11-08T04:43:07.506Z,67.73
2017-11-08T04:45:35.630Z,73.13
2017-11-08T04:48:04.535Z,68.70
2017-11-08T04:50:32.640Z,69.80
2017-11-08T04:53:00.806Z,77.00
2017-11-08T04:55:28.926Z,74.67
2017-11-08T04:57:57.073Z,71.50
2017-11-08T05:00:25.207Z,68.53
2017-11-08T05:02:53.355Z,72.97
2017-11-08T05:05:22.226Z,80.37
2017-11-08T05:07:50.371Z,68.40
2017-11-08T05:10:18.489Z,66.20
2017-11-08T05:12:47.398Z,65.57
2017-11-08T05:15:15.529Z,65.67
2017-11-08T05:17:43.656Z,73.87
2017-11-08T05:20:11.769Z,68.87
2017-11-08T05:22:39.893Z,76.13
2017-11-08T05:25:08.005Z,71.37
2017-11-08T05:27:36.139Z,73.27
2017-11-08T05:30:04.259Z,81.23
2017-11-08T05:32:32.404Z,78.53
2017-11-08T05:35:00.517Z,81.37
2017-11-08T05:37:28.669Z,71.63
2017-11-08T05:39:56.798Z,77.20
2017-11-08T05:42:25.697Z,77.37
2017-11-08T05:44:53.813Z,75.47
2017-11-08T05:47:21.959Z,77.40
2017-11-08T05:49:50.093Z,70.63
2017-11-08T05:52:18.237Z,76.97
2017-11-08T05:54:46.344Z,86.87
2017-11-08T05:57:15.272Z,83.13
2017-11-08T05:59:43.403Z,81.67
2017-11-08T06:02:11.517Z,85.13
2017-11-08T06:04:39.647Z,74.90
2017-11-08T06:07:07.786Z,74.67
2017-11-08T06:09:35.937Z,80.17
2017-11-08T06:12:04.068Z,81.60
2017-11-08T06:14:32.963Z,77.50
2017-11-08T06:17:01.835Z,82.33
2017-11-08T06:19:29.969Z,72.70
2017-11-08T06:21:58.094Z,75.07
2017-11-08T06:24:26.255Z,70.67
2017-11-08T06:26:54.389Z,91.17
2017-11-08T06:29:22.526Z,78.17
2017-11-08T06:31:51.425Z,82.87
2017-11-08T06:34:20.344Z,80.40
2017-11-08T06:36:48.461Z,70.87
2017-11-08T06:39:16.585Z,76.27
2017-11-08T06:41:44.699Z,82.53
2017-11-08T06:44:12.859Z,73.47
2017-11-08T06:46:40.975Z,70.03
2017-11-08T06:49:09.105Z,81.07
2017-11-08T06:51:37.218Z,78.07
2017-11-08T06:54:07.917Z,75.17
2017-11-08T06:56:36.038Z,81.03
2017-11-08T06:59:04.944Z,80.70
2017-11-08T07:01:33.061Z,78.97
2017-11-08T07:04:01.168Z,75.83
2017-11-08T07:06:30.088Z,77.40
2017-11-08T07:08:58.225Z,78.43
2017-11-08T07:11:27.164Z,95.10
2017-11-08T07:13:55.275Z,80.93
2017-11-08T07:16:23.422Z,90.53
2017-11-08T07:18:51.529Z,82.40
2017-11-08T07:21:19.670Z,79.53
2017-11-08T07:23:47.768Z,89.00
2017-11-08T07:26:15.914Z,91.37
2017-11-08T07:28:44.025Z,84.53
2017-11-08T07:31:12.918Z,91.37
2017-11-08T07:33:41.817Z,89.80
2017-11-08T07:36:10.737Z,89.87
2017-11-08T07:38:38.858Z,82.80
2017-11-08T07:41:07.001Z,96.67
2017-11-08T07:43:35.122Z,86.77
2017-11-08T07:46:04.016Z,98.70
2017-11-08T07:48:32.883Z,88.90
2017-11-08T07:51:01.020Z,83.07
2017-11-08T07:53:29.148Z,96.50
2017-11-08T07:56:02.969Z,87.90
2017-11-08T07:58:31.089Z,87.33
2017-11-08T08:00:59.247Z,99.97
2017-11-08T08:03:27.360Z,84.30
2017-11-08T08:05:55.512Z,96.90
2017-11-08T08:08:23.636Z,91.87
2017-11-08T08:10:51.784Z,92.63
2017-11-08T08:13:21.083Z,93.93
2017-11-08T08:15:49.233Z,107.40
2017-11-08T08:18:17.360Z,92.87
2017-11-08T08:20:45.513Z,101.03
2017-11-08T08:23:14.399Z,98.17
2017-11-08T08:25:44.206Z,94.67
2017-11-08T08:28:12.321Z,101.27
2017-11-08T08:30:40.465Z,102.23
2017-11-08T08:33:09.347Z,92.07
2017-11-08T08:35:37.467Z,88.87
2017-11-08T08:38:05.590Z,99.63
2017-11-08T08:40:33.734Z,94.90
2017-11-08T08:43:01.854Z,100.30
2017-11-08T08:45:30.765Z,92.87
2017-11-08T08:47:58.886Z,100.17
2017-11-08T08:50:27.026Z,97.40
2017-11-08T08:52:55.154Z,111.57
2017-11-08T08:55:24.068Z,100.47
2017-11-08T08:57:52.193Z,89.80
2017-11-08T09:00:21.121Z,99.70
2017-11-08T09:02:50.009Z,105.17
2017-11-08T09:05:18.926Z,106.30
2017-11-08T09:07:47.059Z,108.70
2017-11-08T09:10:15.211Z,100.67
2017-11-08T09:12:43.330Z,92.80
2017-11-08T09:15:11.479Z,91.90
2017-11-08T09:17:39.625Z,103.07
2017-11-08T09:20:07.751Z,91.07
2017-11-08T09:22:35.926Z,88.80
2017-11-08T09:25:04.044Z,95.63
2017-11-08T09:27:32.188Z,96.57
2017-11-08T09:30:00.306Z,81.80
2017-11-08T09:32:28.451Z,94.47
2017-11-08T09:34:59.018Z,100.77
2017-11-08T09:37:33.607Z,97.97
2017-11-08T09:40:01.746Z,95.20
2017-11-08T09:42:31.681Z,94.20
2017-11-08T09:44:59.806Z,85.90
2017-11-08T09:47:28.705Z,84.13
2017-11-08T09:50:01.395Z,98.77
2017-11-08T09:52:30.302Z,98.07
2017-11-08T09:54:58.413Z,92.27
2017-11-08T09:57:26.544Z,91.33
2017-11-08T09:59:54.664Z,95.20
2017-11-08T10:02:22.788Z,84.10
2017-11-08T10:04:50.921Z,91.97
2017-11-08T10:07:19.136Z,83.07
2017-11-08T10:09:52.093Z,86.03
2017-11-08T10:12:20.193Z,100.17
2017-11-08T10:14:48.396Z,89.83
2017-11-08T10:17:16.527Z,90.00
2017-11-08T10:19:45.420Z,94.23
2017-11-08T10:22:13.569Z,92.27
2017-11-08T10:24:42.474Z,95.27
2017-11-08T10:27:11.381Z,96.17
2017-11-08T10:29:39.666Z,91.63
2017-11-08T10:32:07.800Z,83.03
2017-11-08T10:34:35.924Z,95.80
2017-11-08T10:37:04.105Z,95.63
2017-11-08T10:39:32.215Z,105.10
2017-11-08T10:44:29.254Z,99.80
2017-11-08T10:46:57.407Z,102.47
2017-11-08T10:49:31.240Z,89.67
2017-11-08T10:52:00.137Z,93.20
2017-11-08T10:54:30.887Z,87.37
2017-11-08T10:56:59.045Z,101.00
2017-11-08T10:59:27.956Z,107.63
2017-11-08T11:01:56.084Z,99.47
2017-11-08T11:04:24.220Z,89.10
2017-11-08T11:06:52.353Z,94.93
2017-11-08T11:09:23.197Z,103.97
2017-11-08T11:11:52.090Z,105.17
2017-11-08T11:14:21.002Z,94.43
2017-11-08T11:16:49.118Z,94.77
2017-11-08T11:19:21.186Z,105.67
2017-11-08T11:21:59.221Z,105.93
2017-11-08T11:24:33.851Z,96.03
2017-11-08T11:27:08.229Z,93.60
2017-11-08T11:29:36.390Z,104.27
2017-11-08T11:32:04.518Z,97.97
2017-11-08T11:34:33.417Z,100.37
2017-11-08T11:37:02.303Z,105.20
2017-11-08T11:39:37.662Z,100.77
2017-11-08T11:42:08.703Z,106.50
2017-11-08T11:44:36.839Z,109.37
2017-11-08T11:47:04.999Z,113.23
2017-11-08T11:49:37.043Z,97.67
2017-11-08T11:52:05.206Z,105.57
2017-11-08T11:54:33.350Z,107.20
2017-11-08T11:57:02.239Z,110.57
2017-11-08T11:59:31.146Z,113.07
2017-11-08T12:01:59.268Z,108.97
2017-11-08T12:04:27.415Z,113.50
2017-11-08T12:06:55.540Z,109.43
2017-11-08T12:09:23.686Z,109.10
2017-11-08T12:11:51.825Z,100.67
2017-11-08T12:14:19.987Z,104.40
2017-11-08T12:16:48.112Z,98.43
2017-11-08T12:19:16.260Z,116.63
2017-11-08T12:21:44.376Z,100.70
2017-11-08T12:24:12.524Z,105.20
2017-11-08T12:26:40.646Z,108.30
2017-11-08T12:29:08.839Z,114.40
2017-11-08T12:31:36.971Z,108.77
2017-11-08T12:34:05.119Z,107.43
2017-11-08T12:36:33.238Z,108.93
2017-11-08T12:39:02.119Z,117.33
2017-11-08T12:41:31.038Z,108.70
2017-11-08T12:43:59.161Z,105.33
2017-11-08T12:46:27.310Z,116.33
2017-11-08T12:48:56.330Z,104.07
2017-11-08T12:51:24.486Z,113.10
2017-11-08T12:53:52.622Z,121.83
2017-11-08T12:56:20.762Z,106.53
2017-11-08T12:58:48.881Z,105.90
2017-11-08T13:01:17.027Z,117.47
2017-11-08T13:03:45.911Z,110.30
2017-11-08T13:06:14.817Z,111.37
2017-11-08T13:08:42.947Z,108.77
2017-11-08T13:11:16.635Z,105.93
2017-11-08T13:13:44.772Z,111.43
2017-11-08T13:16:12.929Z,104.33
2017-11-08T13:18:41.111Z,116.33
2017-11-08T13:21:10.042Z,122.37
2017-11-08T13:23:38.169Z,121.93
2017-11-08T13:26:07.490Z,125.60
2017-11-08T13:28:35.611Z,114.47
2017-11-08T13:31:03.813Z,134.83
2017-11-08T13:33:32.706Z,136.43
2017-11-08T13:36:01.631Z,115.80
2017-11-08T13:38:29.781Z,118.33
2017-11-08T13:40:59.088Z,123.10
2017-11-08T13:43:27.219Z,119.93
2017-11-08T13:45:55.379Z,124.23
2017-11-08T13:48:23.518Z,119.87
2017-11-08T13:50:51.652Z,125.00
2017-11-08T13:53:19.807Z,121.40
2017-11-08T13:55:48.904Z,109.90
2017-11-08T13:58:17.811Z,117.50
2017-11-08T14:00:45.967Z,114.40
2017-11-08T14:03:14.080Z,126.33
2017-11-08T14:05:42.984Z,129.33
2017-11-08T14:08:11.153Z,128.57
2017-11-08T14:10:39.280Z,120.37
2017-11-08T14:13:07.411Z,119.50
2017-11-08T14:15:35.543Z,120.30
2017-11-08T14:18:04.504Z,133.77
2017-11-08T14:20:32.633Z,123.50
2017-11-08T14:23:01.550Z,115.93
2017-11-08T14:25:29.671Z,108.73
2017-11-08T14:27:57.824Z,119.57
2017-11-08T14:30:25.953Z,125.60
2017-11-08T14:32:54.101Z,118.53
2017-11-08T14:35:22.242Z,121.17
2017-11-08T14:37:50.396Z,133.13
2017-11-08T14:40:18.522Z,120.37
2017-11-08T14:42:47.607Z,131.37
2017-11-08T14:45:15.739Z,130.80
2017-11-08T14:47:43.895Z,131.50
2017-11-08T14:50:12.791Z,115.67
2017-11-08T14:52:40.952Z,128.57
2017-11-08T14:55:11.763Z,125.27
2017-11-08T14:57:39.930Z,112.70
2017-11-08T15:00:08.087Z,113.80
2017-11-08T15:02:37.177Z,132.67
2017-11-08T15:05:05.838Z,135.87
2017-11-08T15:07:33.994Z,116.87
2017-11-08T15:10:02.902Z,123.37
2017-11-08T15:12:36.748Z,137.73
2017-11-08T15:15:11.308Z,124.37
2017-11-08T15:17:40.230Z,137.83
2017-11-08T15:20:09.649Z,123.00
2017-11-08T15:22:37.867Z,129.37
2017-11-08T15:25:11.589Z,119.33
2017-11-08T15:27:40.125Z,131.63
2017-11-08T15:30:08.258Z,134.77
2017-11-08T15:32:37.378Z,140.30
2017-11-08T15:35:05.520Z,139.77
2017-11-08T15:37:33.679Z,132.83
2017-11-08T15:40:02.625Z,146.90
2017-11-08T15:42:30.871Z,142.53
2017-11-08T15:44:59.539Z,140.13
2017-11-08T15:47:28.472Z,154.70
2017-11-08T15:49:56.638Z,127.23
2017-11-08T15:52:24.797Z,150.57
2017-11-08T15:54:52.989Z,133.30
2017-11-08T15:57:24.031Z,152.30
2017-11-08T15:59:52.617Z,151.70
2017-11-08T16:02:23.231Z,145.10
2017-11-08T16:04:51.420Z,155.87
2017-11-08T16:07:20.840Z,149.87
2017-11-08T16:09:50.516Z,152.00
2017-11-08T16:12:20.369Z,148.90
2017-11-08T16:14:50.505Z,150.87
2017-11-08T16:17:22.015Z,141.90
2017-11-08T16:19:51.774Z,148.13
2017-11-08T16:22:24.554Z,162.60
2017-11-08T16:24:54.546Z,162.93
2017-11-08T16:27:24.390Z,162.87
2017-11-08T16:29:54.162Z,149.07
2017-11-08T16:32:26.389Z,143.27
2017-11-08T16:34:56.657Z,141.73
2017-11-08T16:37:26.492Z,144.97
2017-11-08T16:39:54.836Z,143.17
2017-11-08T16:42:22.985Z,148.90
2017-11-08T16:44:51.206Z,161.43
2017-11-08T16:47:20.144Z,142.10
2017-11-08T16:49:49.089Z,142.90
2017-11-08T16:52:17.233Z,146.07
2017-11-08T16:54:45.411Z,136.87
2017-11-08T16:57:13.554Z,149.60
2017-11-08T16:59:42.499Z,137.90
2017-11-08T17:02:10.648Z,142.17
2017-11-08T17:04:38.805Z,141.20
2017-11-08T17:07:06.941Z,138.37
2017-11-08T17:09:35.091Z,148.20
2017-11-08T17:12:04.006Z,153.43
2017-11-08T17:14:32.152Z,157.93
2017-11-08T17:17:01.044Z,150.57
2017-11-08T17:19:29.969Z,140.20
2017-11-08T17:21:58.099Z,145.73
2017-11-08T17:24:26.214Z,147.63
2017-11-08T17:26:54.364Z,155.57
2017-11-08T17:29:22.494Z,155.27
2017-11-08T17:31:50.649Z,137.20
2017-11-08T17:34:18.793Z,144.57
2017-11-08T17:36:46.954Z,138.93
2017-11-08T17:39:15.840Z,150.73
2017-11-08T17:41:44.759Z,134.30
2017-11-08T17:44:12.904Z,141.13
2017-11-08T17:46:41.805Z,153.00
2017-11-08T17:49:09.923Z,160.87
2017-11-08T17:51:38.068Z,156.83
2017-11-08T17:54:06.191Z,142.63
2017-11-08T17:56:34.330Z,136.43
2017-11-08T17:59:02.467Z,138.30
2017-11-08T18:01:31.398Z,127.50
2017-11-08T18:03:59.524Z,140.97
2017-11-08T18:06:28.430Z,119.77
2017-11-08T18:08:56.560Z,137.13
2017-11-08T18:11:24.754Z,134.73
2017-11-08T18:13:53.666Z,117.07
2017-11-08T18:16:22.592Z,106.57
2017-11-08T18:18:50.715Z,143.77
2017-11-08T18:21:19.632Z,112.43
2017-11-08T18:23:47.767Z,139.77
2017-11-08T18:26:15.939Z,220.73
2017-11-08T18:28:46.225Z,191.93
2017-11-08T18:31:14.535Z,162.60
2017-11-08T18:33:42.684Z,139.53
2017-11-08T18:36:10.847Z,133.97
2017-11-08T18:38:39.012Z,144.73
2017-11-08T18:41:07.163Z,126.13
2017-11-08T18:43:36.070Z,125.07
2017-11-08T18:46:04.203Z,131.97
2017-11-08T18:48:33.137Z,129.47
2017-11-08T18:51:01.272Z,133.03
2017-11-08T18:53:30.191Z,163.63
2017-11-08T18:55:58.328Z,135.23
2017-11-08T18:58:26.483Z,129.60
2017-11-08T19:00:54.619Z,126.10
2017-11-08T19:03:22.783Z,122.33
2017-11-08T19:05:50.906Z,130.77
2017-11-08T19:08:19.041Z,122.33
2017-11-08T19:10:47.167Z,131.70
2017-11-08T19:13:15.308Z,130.93
2017-11-08T19:15:43.481Z,120.83
2017-11-08T19:18:11.604Z,136.77
2017-11-08T19:20:40.607Z,108.40
2017-11-08T19:23:08.799Z,127.60
2017-11-08T19:25:36.936Z,122.73
2017-11-08T19:28:05.851Z,129.70
2017-11-08T19:30:33.975Z,137.57
2017-11-08T19:33:02.118Z,122.80
2017-11-08T19:35:30.242Z,115.43
2017-11-08T19:37:58.394Z,115.67
2017-11-08T19:40:27.554Z,121.97
2017-11-08T19:42:56.687Z,123.70
2017-11-08T19:45:24.838Z,128.93
2017-11-08T19:47:53.029Z,130.53
2017-11-08T19:50:21.169Z,126.83
2017-11-08T19:52:49.311Z,127.23
2017-11-08T19:55:18.225Z,124.00
2017-11-08T19:57:46.355Z,126.03
2017-11-08T20:00:14.511Z,136.00
2017-11-08T20:02:42.657Z,130.00
2017-11-08T20:05:10.867Z,140.37
2017-11-08T20:07:38.994Z,141.20
2017-11-08T20:10:07.133Z,133.13
2017-11-08T20:12:35.260Z,159.13
2017-11-08T20:15:03.563Z,143.37
2017-11-08T20:17:31.686Z,133.10
2017-11-08T20:19:59.830Z,129.30
2017-11-08T20:22:27.966Z,131.23
2017-11-08T20:24:56.101Z,146.70
2017-11-08T20:27:24.975Z,138.57
2017-11-08T20:29:53.886Z,124.33
2017-11-08T20:32:22.096Z,130.60
2017-11-08T20:34:50.248Z,132.90
2017-11-08T20:37:18.394Z,138.97
2017-11-08T20:39:47.340Z,129.37
2017-11-08T20:42:15.487Z,145.40
2017-11-08T20:44:43.644Z,149.87
2017-11-08T20:47:12.523Z,150.60
2017-11-08T20:49:41.467Z,143.33
2017-11-08T20:52:09.590Z,136.50
2017-11-08T20:54:38.511Z,138.90
2017-11-08T20:57:06.627Z,131.63
2017-11-08T20:59:34.747Z,140.27
2017-11-08T21:02:02.936Z,124.20
2017-11-08T21:04:31.055Z,121.13
2017-11-08T21:06:59.231Z,112.30
2017-11-08T21:09:27.369Z,123.40
2017-11-08T21:11:55.655Z,123.90
2017-11-08T21:14:23.770Z,121.40
2017-11-08T21:16:52.671Z,133.97
2017-11-08T21:19:21.559Z,123.90
2017-11-08T21:21:50.453Z,132.60
2017-11-08T21:24:19.328Z,132.13
2017-11-08T21:26:47.490Z,143.03
2017-11-08T21:29:15.623Z,132.10
2017-11-08T21:31:43.771Z,139.87
2017-11-08T21:34:11.916Z,126.90
2017-11-08T21:36:40.049Z,128.27
2017-11-08T21:39:08.170Z,139.47
2017-11-08T21:41:37.089Z,128.13
2017-11-08T21:44:05.200Z,133.40
2017-11-08T21:46:33.346Z,129.93
2017-11-08T21:49:01.453Z,132.77
2017-11-08T21:51:29.597Z,117.93
2017-11-08T21:53:57.722Z,119.07
2017-11-08T21:56:25.836Z,120.43
2017-11-08T21:58:53.960Z,120.93
2017-11-08T22:01:22.080Z,126.10
2017-11-08T22:03:50.220Z,128.30
2017-11-08T22:06:19.115Z,125.33
2017-11-08T22:08:48.020Z,121.20
2017-11-08T22:11:16.178Z,136.77
2017-11-08T22:13:45.087Z,119.13
2017-11-08T22:16:13.204Z,116.70
2017-11-08T22:18:41.359Z,122.83
2017-11-08T22:21:09.478Z,123.63
2017-11-08T22:23:37.625Z,120.33
2017-11-08T22:26:05.744Z,111.77
2017-11-08T22:28:34.666Z,116.43
2017-11-08T22:31:02.782Z,124.93
2017-11-08T22:33:30.916Z,113.43
2017-11-08T22:35:59.040Z,113.07
2017-11-08T22:38:27.946Z,125.00
2017-11-08T22:40:56.817Z,113.70
2017-11-08T22:43:24.967Z,113.13
2017-11-08T22:45:53.092Z,128.23
2017-11-08T22:48:21.231Z,118.23
2017-11-08T22:50:49.367Z,126.27
2017-11-08T22:53:17.511Z,121.53
2017-11-08T22:55:45.645Z,121.93
2017-11-08T22:58:13.806Z,130.37
2017-11-08T23:00:41.920Z,117.40
2017-11-08T23:03:10.812Z,114.00
2017-11-08T23:05:39.701Z,120.10
2017-11-08T23:08:08.607Z,110.73
2017-11-08T23:10:36.729Z,121.07
2017-11-08T23:13:04.856Z,124.77
2017-11-08T23:15:33.003Z,112.77
2017-11-08T23:18:01.907Z,115.63
2017-11-08T23:20:30.803Z,119.10
2017-11-08T23:22:59.693Z,114.63
2017-11-08T23:25:28.583Z,114.50
2017-11-08T23:27:57.574Z,130.53
2017-11-08T23:30:26.467Z,116.20
2017-11-08T23:32:55.405Z,115.90
2017-11-08T23:35:23.521Z,135.43
2017-11-08T23:37:52.419Z,124.13
2017-11-08T23:40:21.326Z,118.83
2017-11-08T23:42:49.448Z,120.30
2017-11-08T23:45:17.581Z,113.73
2017-11-08T23:47:45.722Z,115.70
2017-11-08T23:50:13.874Z,117.77
2017-11-08T23:52:41.996Z,112.60
2017-11-08T23:55:10.134Z,109.73
2017-11-08T23:57:38.255Z,111.03
